createdAt,value
2022-12-13T00:01:37.080Z,97841.38
2022-12-13T00:03:41.990Z,97843.91
2022-12-13T00:05:48.305Z,97841.41
2022-12-13T00:07:53.153Z,97836.31
2022-12-13T00:09:57.936Z,97842.28
2022-12-13T00:12:05.341Z,97844.03
2022-12-13T00:14:11.135Z,97844.91
2022-12-13T00:16:18.085Z,97845.78
2022-12-13T00:18:23.307Z,97838.22
2022-12-13T00:20:28.055Z,97835.69
2022-12-13T00:22:33.015Z,97845.88
2022-12-13T00:24:42.880Z,97844.97
2022-12-13T00:26:50.617Z,97833.13
2022-12-13T00:28:58.526Z,97829.69
2022-12-13T00:31:27.029Z,97838.09
2022-12-13T00:33:29.272Z,97823.69
2022-12-13T00:35:34.279Z,97824.47
2022-12-13T00:37:39.238Z,97827.81
2022-12-13T00:39:44.296Z,97821.78
2022-12-13T00:41:49.878Z,97829.41
2022-12-13T00:43:57.424Z,97827.66
2022-12-13T00:46:02.357Z,97825.16
2022-12-13T00:48:07.964Z,97826.03
2022-12-13T00:50:13.006Z,97817.63
2022-12-13T00:52:17.544Z,97827.00
2022-12-13T00:54:22.639Z,97824.50
2022-12-13T00:56:28.573Z,97822.84
2022-12-13T00:58:33.399Z,97820.31
2022-12-13T01:00:40.757Z,97822.94
2022-12-13T01:02:45.900Z,97823.81
2022-12-13T01:04:52.538Z,97811.97
2022-12-13T01:06:57.825Z,97809.44
2022-12-13T01:09:02.607Z,97806.03
2022-12-13T01:11:08.933Z,97800.16
2022-12-13T01:13:14.005Z,97793.38
2022-12-13T01:15:18.971Z,97804.44
2022-12-13T01:17:26.520Z,97801.88
2022-12-13T01:19:31.890Z,97796.69
2022-12-13T01:21:36.857Z,97806.78
2022-12-13T01:23:41.494Z,97797.50
2022-12-13T01:25:46.392Z,97802.59
2022-12-13T01:27:51.921Z,97799.19
2022-12-13T01:29:56.763Z,97795.81
2022-12-13T01:32:01.548Z,97788.19
2022-12-13T01:34:13.056Z,97791.59
2022-12-13T01:36:19.999Z,97794.16
2022-12-13T01:38:37.828Z,97799.25
2022-12-13T01:40:46.686Z,97793.34
2022-12-13T01:42:51.535Z,97798.41
2022-12-13T01:45:06.640Z,97795.00
2022-12-13T01:47:11.783Z,97804.31
2022-12-13T01:49:21.237Z,97797.50
2022-12-13T01:51:31.727Z,97805.13
2022-12-13T01:53:39.841Z,97808.47
2022-12-13T01:55:48.115Z,97798.16
2022-12-13T01:57:54.512Z,97800.72
2022-12-13T01:59:59.397Z,97806.47
2022-12-13T02:02:04.759Z,97804.78
2022-12-13T02:04:10.246Z,97794.56
2022-12-13T02:06:20.606Z,97791.16
2022-12-13T02:08:27.111Z,97788.50
2022-12-13T02:10:34.318Z,97784.25
2022-12-13T02:12:40.812Z,97784.22
2022-12-13T02:14:45.638Z,97786.78
2022-12-13T02:17:03.324Z,97788.47
2022-12-13T02:19:37.938Z,97790.06
2022-12-13T02:21:55.563Z,97793.41
2022-12-13T02:24:32.124Z,97791.72
2022-12-13T02:26:48.905Z,97796.81
2022-12-13T02:29:13.847Z,97795.16
2022-12-13T02:31:48.689Z,97791.75
2022-12-13T02:33:59.566Z,97785.84
2022-12-13T02:36:15.262Z,97780.78
2022-12-13T02:38:29.810Z,97785.06
2022-12-13T02:40:37.548Z,97780.84
2022-12-13T02:42:50.796Z,97780.78
2022-12-13T02:45:00.585Z,97776.53
2022-12-13T02:47:12.712Z,97775.59
2022-12-13T02:49:31.051Z,97779.75
2022-12-13T02:51:37.673Z,97786.50
2022-12-13T02:53:44.020Z,97778.94
2022-12-13T02:55:48.781Z,97784.03
2022-12-13T02:57:53.670Z,97773.94
2022-12-13T02:59:59.540Z,97762.09
2022-12-13T03:02:21.537Z,97762.91
2022-12-13T03:05:03.932Z,97762.84
2022-12-13T03:07:17.808Z,97759.50
2022-12-13T03:09:43.277Z,97759.53
2022-12-13T03:12:14.015Z,97757.06
2022-12-13T03:14:21.627Z,97759.63
2022-12-13T03:16:36.608Z,97756.25
2022-12-13T03:18:45.553Z,97751.22
2022-12-13T03:20:52.774Z,97755.44
2022-12-13T03:22:59.110Z,97751.19
2022-12-13T03:25:03.911Z,97754.56
2022-12-13T03:27:08.832Z,97746.97
2022-12-13T03:29:13.619Z,97746.94
2022-12-13T03:31:28.983Z,97747.69
2022-12-13T03:33:33.616Z,97742.53
2022-12-13T03:35:44.407Z,97735.63
2022-12-13T03:37:50.675Z,97740.63
2022-12-13T03:39:55.607Z,97738.91
2022-12-13T03:42:00.418Z,97742.28
2022-12-13T03:44:08.581Z,97738.91
2022-12-13T03:46:13.881Z,97739.75
2022-12-13T03:48:22.666Z,97741.38
2022-12-13T03:50:27.966Z,97740.44
2022-12-13T03:52:35.354Z,97740.41
2022-12-13T03:54:40.117Z,97741.25
2022-12-13T03:56:50.191Z,97737.88
2022-12-13T03:58:55.314Z,97737.00
2022-12-13T04:01:00.236Z,97734.41
2022-12-13T04:03:06.051Z,97740.28
2022-12-13T04:05:10.875Z,97737.75
2022-12-13T04:07:21.829Z,97732.50
2022-12-13T04:09:30.179Z,97737.41
2022-12-13T04:11:47.647Z,97740.69
2022-12-13T04:13:52.950Z,97732.25
2022-12-13T04:15:57.721Z,97727.16
2022-12-13T04:18:02.562Z,97739.00
2022-12-13T04:20:09.497Z,97733.09
2022-12-13T04:22:14.270Z,97730.63
2022-12-13T04:24:19.211Z,97732.41
2022-12-13T04:26:26.352Z,97735.84
2022-12-13T04:28:31.090Z,97717.28
2022-12-13T04:30:36.668Z,97723.25
2022-12-13T04:32:41.690Z,97720.66
2022-12-13T04:34:46.281Z,97715.56
2022-12-13T04:36:51.056Z,97723.13
2022-12-13T04:38:55.707Z,97726.50
2022-12-13T04:41:10.024Z,97732.38
2022-12-13T04:43:17.390Z,97717.13
2022-12-13T04:45:22.148Z,97725.66
2022-12-13T04:47:27.245Z,97728.28
2022-12-13T04:49:32.126Z,97730.88
2022-12-13T04:51:37.118Z,97730.94
2022-12-13T04:53:41.894Z,97725.09
2022-12-13T04:55:46.662Z,97719.19
2022-12-13T04:57:51.405Z,97725.13
2022-12-13T04:59:59.347Z,97724.97
2022-12-13T05:02:04.136Z,97726.50
2022-12-13T05:04:09.061Z,97723.94
2022-12-13T05:06:26.237Z,97729.03
2022-12-13T05:08:32.578Z,97711.28
2022-12-13T05:10:38.255Z,97723.97
2022-12-13T05:12:43.143Z,97722.19
2022-12-13T05:14:48.055Z,97727.34
2022-12-13T05:16:58.502Z,97724.69
2022-12-13T05:19:03.255Z,97729.81
2022-12-13T05:21:10.632Z,97729.03
2022-12-13T05:23:22.411Z,97729.13
2022-12-13T05:25:28.367Z,97732.63
2022-12-13T05:27:33.301Z,97729.31
2022-12-13T05:29:37.867Z,97731.78
2022-12-13T05:31:42.864Z,97728.25
2022-12-13T05:33:50.277Z,97729.03
2022-12-13T05:36:00.022Z,97737.41
2022-12-13T05:38:06.780Z,97728.19
2022-12-13T05:40:12.982Z,97725.72
2022-12-13T05:42:17.733Z,97725.75
2022-12-13T05:44:22.539Z,97725.78
2022-12-13T05:46:27.310Z,97723.25
2022-12-13T05:48:32.046Z,97709.63
2022-12-13T05:50:41.032Z,97717.97
2022-12-13T05:52:46.592Z,97721.34
2022-12-13T05:54:51.718Z,97712.94
2022-12-13T05:56:56.583Z,97720.53
2022-12-13T05:59:01.609Z,97713.75
2022-12-13T06:01:10.412Z,97712.81
2022-12-13T06:03:15.430Z,97718.69
2022-12-13T06:05:20.370Z,97719.47
2022-12-13T06:07:27.722Z,97721.13
2022-12-13T06:09:32.653Z,97720.25
2022-12-13T06:11:44.794Z,97718.56
2022-12-13T06:14:00.678Z,97718.50
2022-12-13T06:16:08.617Z,97719.31
2022-12-13T06:18:27.171Z,97723.59
2022-12-13T06:20:31.974Z,97733.69
2022-12-13T06:22:39.203Z,97720.03
2022-12-13T06:24:44.031Z,97716.56
2022-12-13T06:26:48.863Z,97726.78
2022-12-13T06:28:53.592Z,97714.97
2022-12-13T06:30:58.614Z,97717.50
2022-12-13T06:33:03.530Z,97717.47
2022-12-13T06:35:27.551Z,97718.38
2022-12-13T06:37:33.553Z,97721.81
2022-12-13T06:39:41.232Z,97719.38
2022-12-13T06:41:46.377Z,97712.72
2022-12-13T06:43:51.714Z,97712.78
2022-12-13T06:45:56.641Z,97713.66
2022-12-13T06:48:01.461Z,97717.03
2022-12-13T06:50:07.004Z,97717.03
2022-12-13T06:52:12.756Z,97717.13
2022-12-13T06:54:21.565Z,97719.69
2022-12-13T06:56:29.295Z,97717.28
2022-12-13T06:58:34.393Z,97716.44
2022-12-13T07:00:48.399Z,97718.94
2022-12-13T07:02:57.784Z,97715.56
2022-12-13T07:05:03.306Z,97712.13
2022-12-13T07:07:08.258Z,97719.75
2022-12-13T07:09:13.016Z,97703.66
2022-12-13T07:11:18.332Z,97710.38
2022-12-13T07:13:25.704Z,97711.13
2022-12-13T07:15:30.577Z,97706.81
2022-12-13T07:17:35.369Z,97708.44
2022-12-13T07:19:40.438Z,97713.44
2022-12-13T07:21:44.966Z,97713.44
2022-12-13T07:23:55.126Z,97721.03
2022-12-13T07:26:00.356Z,97728.72
2022-12-13T07:28:07.497Z,97736.41
2022-12-13T07:30:15.672Z,97733.06
2022-12-13T07:32:20.467Z,97736.47
2022-12-13T07:34:25.344Z,97739.94
2022-12-13T07:36:30.128Z,97741.66
2022-12-13T07:38:34.918Z,97740.69
2022-12-13T07:40:41.809Z,97737.25
2022-12-13T07:42:52.382Z,97733.00
2022-12-13T07:44:57.157Z,97731.28
2022-12-13T07:47:04.782Z,97735.44
2022-12-13T07:49:09.616Z,97732.84
2022-12-13T07:51:14.644Z,97728.50
2022-12-13T07:53:19.788Z,97731.94
2022-12-13T07:55:33.600Z,97731.03
2022-12-13T07:57:39.946Z,97730.97
2022-12-13T07:59:44.717Z,97734.28
2022-12-13T08:01:49.517Z,97734.34
2022-12-13T08:03:56.906Z,97739.44
2022-12-13T08:06:03.115Z,97738.75
2022-12-13T08:08:10.271Z,97736.22
2022-12-13T08:10:15.175Z,97743.91
2022-12-13T08:12:22.762Z,97748.06
2022-12-13T08:14:27.838Z,97745.56
2022-12-13T08:16:34.120Z,97743.81
2022-12-13T08:18:39.709Z,97744.69
2022-12-13T08:20:47.094Z,97745.69
2022-12-13T08:23:02.298Z,97755.09
2022-12-13T08:25:09.256Z,97750.97
2022-12-13T08:27:14.062Z,97746.81
2022-12-13T08:29:22.840Z,97742.63
2022-12-13T08:31:38.761Z,97746.91
2022-12-13T08:33:45.756Z,97745.22
2022-12-13T08:35:53.193Z,97750.28
2022-12-13T08:37:58.030Z,97746.88
2022-12-13T08:40:06.804Z,97751.09
2022-12-13T08:42:16.760Z,97751.16
2022-12-13T08:44:23.021Z,97758.81
2022-12-13T08:46:27.891Z,97752.94
2022-12-13T08:48:32.759Z,97758.84
2022-12-13T08:50:37.784Z,97753.78
2022-12-13T08:52:45.473Z,97753.81
2022-12-13T08:54:50.251Z,97755.47
2022-12-13T08:56:55.099Z,97765.69
2022-12-13T08:58:59.854Z,97758.97
2022-12-13T09:01:04.701Z,97764.91
2022-12-13T09:03:10.048Z,97760.78
2022-12-13T09:05:33.658Z,97753.28
2022-12-13T09:07:41.156Z,97754.13
2022-12-13T09:09:54.747Z,97755.88
2022-12-13T09:12:00.560Z,97765.22
2022-12-13T09:14:05.335Z,97760.19
2022-12-13T09:16:23.564Z,97769.56
2022-12-13T09:18:36.081Z,97756.09
2022-12-13T09:20:42.817Z,97757.75
2022-12-13T09:22:47.923Z,97756.06
2022-12-13T09:24:55.410Z,97762.78
2022-12-13T09:27:09.497Z,97755.97
2022-12-13T09:29:16.394Z,97756.84
2022-12-13T09:31:22.870Z,97756.03
2022-12-13T09:33:30.620Z,97748.47
2022-12-13T09:35:36.115Z,97754.44
2022-12-13T09:37:45.698Z,97749.47
2022-12-13T09:39:55.223Z,97747.03
2022-12-13T09:42:10.452Z,97755.63
2022-12-13T09:44:30.493Z,97754.09
2022-12-13T09:46:44.387Z,97743.16
2022-12-13T09:48:50.378Z,97744.88
2022-12-13T09:51:15.935Z,97744.84
2022-12-13T09:53:22.238Z,97747.47
2022-12-13T09:55:30.278Z,97740.75
2022-12-13T09:57:37.751Z,97747.59
2022-12-13T09:59:44.673Z,97747.66
2022-12-13T10:01:49.670Z,97730.75
2022-12-13T10:03:55.223Z,97735.84
2022-12-13T10:06:03.094Z,97730.81
2022-12-13T10:08:10.406Z,97730.06
2022-12-13T10:10:17.121Z,97718.28
2022-12-13T10:12:22.037Z,97715.75
2022-12-13T10:14:36.524Z,97717.50
2022-12-13T10:16:48.429Z,97713.34
2022-12-13T10:18:53.844Z,97707.44
2022-12-13T10:21:00.128Z,97710.00
2022-12-13T10:25:51.096Z,97717.72
2022-12-13T10:27:56.502Z,97709.25
2022-12-13T10:30:10.855Z,97700.72
2022-12-13T10:32:16.242Z,97689.72
2022-12-13T10:34:26.693Z,97694.84
2022-12-13T10:36:38.495Z,97692.31
2022-12-13T10:38:46.007Z,97700.78
2022-12-13T10:40:51.151Z,97708.41
2022-12-13T10:43:10.271Z,97702.50
2022-12-13T10:45:23.161Z,97692.38
2022-12-13T10:47:29.113Z,97699.97
2022-12-13T10:49:38.462Z,97702.53
2022-12-13T10:51:43.422Z,97691.50
2022-12-13T10:53:49.561Z,97685.56
2022-12-13T10:56:02.215Z,97683.88
2022-12-13T10:58:09.872Z,97673.69
2022-12-13T11:00:36.374Z,97670.31
2022-12-13T11:02:42.287Z,97678.81
2022-12-13T11:04:47.209Z,97673.72
2022-12-13T11:06:52.009Z,97672.88
2022-12-13T11:09:01.509Z,97665.28
2022-12-13T11:11:08.681Z,97670.34
2022-12-13T11:13:27.616Z,97673.75
2022-12-13T11:15:37.649Z,97671.19
2022-12-13T11:17:50.617Z,97658.47
2022-12-13T11:19:57.692Z,97658.47
2022-12-13T11:22:04.226Z,97667.81
2022-12-13T11:24:11.480Z,97669.53
2022-12-13T11:26:24.212Z,97666.97
2022-12-13T11:28:53.386Z,97661.84
2022-12-13T11:31:11.382Z,97649.13
2022-12-13T11:33:27.643Z,97645.72
2022-12-13T11:35:39.347Z,97645.72
2022-12-13T11:37:54.038Z,97642.31
2022-12-13T11:40:03.153Z,97645.69
2022-12-13T11:42:22.260Z,97648.22
2022-12-13T11:44:39.189Z,97638.00
2022-12-13T11:46:53.836Z,97626.09
2022-12-13T11:49:03.380Z,97632.88
2022-12-13T11:51:12.178Z,97634.53
2022-12-13T11:53:25.731Z,97626.03
2022-12-13T11:55:38.837Z,97619.25
2022-12-13T11:57:49.534Z,97612.50
2022-12-13T12:00:02.002Z,97603.94
2022-12-13T12:02:19.190Z,97610.72
2022-12-13T12:04:26.481Z,97604.81
2022-12-13T12:06:36.467Z,97594.56
2022-12-13T12:08:48.037Z,97586.03
2022-12-13T12:11:05.006Z,97591.06
2022-12-13T12:13:18.598Z,97580.84
2022-12-13T12:15:29.346Z,97587.69
2022-12-13T12:17:42.286Z,97586.84
2022-12-13T12:19:52.299Z,97586.88
2022-12-13T12:22:15.229Z,97584.38
2022-12-13T12:24:31.193Z,97599.72
2022-12-13T12:26:45.727Z,97594.59
2022-12-13T12:29:12.083Z,97597.06
2022-12-13T12:31:27.144Z,97596.22
2022-12-13T12:33:45.852Z,97595.34
2022-12-13T12:36:15.624Z,97589.38
2022-12-13T12:38:57.373Z,97577.44
2022-12-13T12:41:21.681Z,97582.50
2022-12-13T12:43:35.031Z,97574.00
2022-12-13T12:45:57.355Z,97568.03
2022-12-13T12:50:52.733Z,97577.41
2022-12-13T12:53:13.461Z,97576.56
2022-12-13T12:55:25.695Z,97572.31
2022-12-13T12:57:40.880Z,97569.81
2022-12-13T13:00:01.494Z,97581.72
2022-12-13T13:02:18.743Z,97571.47
2022-12-13T13:04:29.862Z,97574.84
2022-12-13T13:06:39.898Z,97579.91
2022-12-13T13:08:53.411Z,97570.53
2022-12-13T13:11:01.921Z,97574.84
2022-12-13T13:13:11.934Z,97568.84
2022-12-13T13:15:47.550Z,97572.25
2022-12-13T13:17:52.454Z,97576.50
2022-12-13T13:20:14.034Z,97572.22
2022-12-13T13:22:43.038Z,97578.19
2022-12-13T13:25:03.642Z,97582.44
2022-12-13T13:27:30.586Z,97577.34
2022-12-13T13:29:38.639Z,97575.66
2022-12-13T13:32:03.196Z,97575.66
2022-12-13T13:34:26.114Z,97573.97
2022-12-13T13:36:52.684Z,97577.38
2022-12-13T13:39:01.055Z,97583.31
2022-12-13T13:41:57.375Z,97579.06
2022-12-13T13:44:04.030Z,97574.81
2022-12-13T13:46:13.763Z,97573.09
2022-12-13T13:48:36.555Z,97568.84
2022-12-13T13:51:20.691Z,97556.06
2022-12-13T13:53:48.379Z,97545.03
2022-12-13T13:56:03.178Z,97556.06
2022-12-13T13:58:31.366Z,97562.03
2022-12-13T14:01:13.905Z,97549.25
2022-12-13T14:03:59.640Z,97536.47
2022-12-13T14:06:38.570Z,97546.72
2022-12-13T14:08:54.253Z,97556.91
2022-12-13T14:11:13.408Z,97558.59
2022-12-13T14:14:00.500Z,97557.75
2022-12-13T14:16:34.008Z,97560.38
2022-12-13T14:19:08.898Z,97551.00
2022-12-13T14:21:22.293Z,97563.78
2022-12-13T14:23:42.181Z,97568.06
2022-12-13T14:26:05.261Z,97566.34
2022-12-13T14:28:21.548Z,97564.63
2022-12-13T14:30:29.549Z,97554.41
2022-12-13T14:32:39.940Z,97556.97
2022-12-13T14:34:48.206Z,97559.53
2022-12-13T14:37:01.160Z,97563.75
2022-12-13T14:39:16.290Z,97554.44
2022-12-13T14:41:30.222Z,97567.16
2022-12-13T14:43:38.606Z,97551.84
2022-12-13T14:45:43.720Z,97559.53
2022-12-13T14:47:48.359Z,97551.88
2022-12-13T14:49:57.207Z,97552.75
2022-12-13T14:52:06.146Z,97558.72
2022-12-13T14:54:25.646Z,97550.22
2022-12-13T14:56:31.640Z,97549.34
2022-12-13T14:58:39.838Z,97552.78
2022-12-13T15:00:47.724Z,97551.91
2022-12-13T15:02:54.228Z,97550.22
2022-12-13T15:05:00.582Z,97554.53
2022-12-13T15:07:09.678Z,97552.78
2022-12-13T15:09:16.030Z,97551.94
2022-12-13T15:11:20.842Z,97548.56
2022-12-13T15:13:30.770Z,97548.56
2022-12-13T15:15:40.301Z,97551.13
2022-12-13T15:17:45.084Z,97543.47
2022-12-13T15:20:01.806Z,97550.31
2022-12-13T15:22:18.563Z,97549.47
2022-12-13T15:24:31.068Z,97548.66
2022-12-13T15:26:37.952Z,97553.75
2022-12-13T15:28:45.299Z,97552.94
2022-12-13T15:30:53.848Z,97551.22
2022-12-13T15:33:19.955Z,97555.47
2022-12-13T15:35:29.206Z,97553.78
2022-12-13T15:37:35.996Z,97550.38
2022-12-13T15:39:47.932Z,97555.50
2022-12-13T15:41:54.511Z,97554.63
2022-12-13T15:44:03.609Z,97552.09
2022-12-13T15:46:11.417Z,97561.44
2022-12-13T15:48:29.958Z,97553.81
2022-12-13T15:50:40.995Z,97557.19
2022-12-13T15:52:50.121Z,97549.56
2022-12-13T15:54:59.742Z,97559.75
2022-12-13T15:57:15.281Z,97549.56
2022-12-13T15:59:29.163Z,97552.97
2022-12-13T16:01:38.709Z,97555.53
2022-12-13T16:03:47.070Z,97547.03
2022-12-13T16:05:54.946Z,97544.47
2022-12-13T16:08:13.341Z,97544.50
2022-12-13T16:10:21.905Z,97546.19
2022-12-13T16:12:31.831Z,97543.66
2022-12-13T16:14:49.041Z,97547.88
2022-12-13T16:16:58.708Z,97546.19
2022-12-13T16:19:04.820Z,97545.34
2022-12-13T16:21:10.277Z,97543.66
2022-12-13T16:23:26.538Z,97538.53
2022-12-13T16:25:32.785Z,97536.00
2022-12-13T16:27:37.685Z,97533.47
2022-12-13T16:29:42.784Z,97530.94
2022-12-13T16:31:48.084Z,97533.50
2022-12-13T16:33:55.464Z,97535.16
2022-12-13T16:36:00.805Z,97532.63
2022-12-13T16:38:09.288Z,97532.63
2022-12-13T16:40:26.494Z,97525.84
2022-12-13T16:42:33.690Z,97528.38
2022-12-13T16:44:40.955Z,97530.94
2022-12-13T16:47:16.253Z,97528.38
2022-12-13T16:49:22.661Z,97513.06
2022-12-13T16:51:27.443Z,97514.78
2022-12-13T16:53:32.432Z,97513.91
2022-12-13T16:55:37.295Z,97513.03
2022-12-13T16:57:42.218Z,97507.94
2022-12-13T16:59:46.954Z,97509.59
2022-12-13T17:01:53.595Z,97507.91
2022-12-13T17:03:58.363Z,97505.34
2022-12-13T17:06:05.848Z,97497.69
2022-12-13T17:08:13.601Z,97500.28
2022-12-13T17:10:19.185Z,97498.59
2022-12-13T17:12:24.083Z,97501.97
2022-12-13T17:14:29.017Z,97494.31
2022-12-13T17:16:34.298Z,97491.78
2022-12-13T17:18:42.550Z,97487.56
2022-12-13T17:20:47.387Z,97493.53
2022-12-13T17:23:05.385Z,97492.69
2022-12-13T17:25:11.913Z,97494.47
2022-12-13T17:27:18.359Z,97497.00
2022-12-13T17:29:24.504Z,97495.31
2022-12-13T17:31:35.217Z,97496.16
2022-12-13T17:33:41.007Z,97501.25
2022-12-13T17:35:45.886Z,97497.84
2022-12-13T17:37:50.726Z,97487.66
2022-12-13T17:39:58.215Z,97491.94
2022-12-13T17:42:03.823Z,97480.88
2022-12-13T17:44:08.818Z,97474.09
2022-12-13T17:46:16.546Z,97469.03
2022-12-13T17:48:21.435Z,97467.31
2022-12-13T17:50:27.061Z,97457.16
2022-12-13T17:52:31.618Z,97461.44
2022-12-13T17:54:36.440Z,97459.75
2022-12-13T17:56:44.782Z,97469.94
2022-12-13T17:58:49.697Z,97469.94
2022-12-13T18:00:54.554Z,97474.22
2022-12-13T18:02:59.398Z,97469.13
2022-12-13T18:05:05.152Z,97465.72
2022-12-13T18:07:10.276Z,97465.72
2022-12-13T18:09:15.158Z,97471.63
2022-12-13T18:11:32.817Z,97471.66
2022-12-13T18:13:41.553Z,97468.25
2022-12-13T18:15:46.441Z,97464.00
2022-12-13T18:20:16.215Z,97473.31
2022-12-13T18:22:21.210Z,97473.31
2022-12-13T18:24:26.114Z,97484.34
2022-12-13T18:26:30.952Z,97486.03
2022-12-13T18:28:36.098Z,97482.63
2022-12-13T18:30:43.943Z,97479.22
2022-12-13T18:32:48.818Z,97483.47
2022-12-13T18:34:54.709Z,97486.00
2022-12-13T18:36:59.704Z,97480.03
2022-12-13T18:39:04.778Z,97475.78
2022-12-13T18:41:09.395Z,97480.88
2022-12-13T18:43:14.169Z,97485.16
2022-12-13T18:45:19.841Z,97486.84
2022-12-13T18:47:28.294Z,97497.88
2022-12-13T18:49:33.098Z,97485.94
2022-12-13T18:51:38.089Z,97486.78
2022-12-13T18:53:43.540Z,97478.25
2022-12-13T18:55:48.352Z,97473.97
2022-12-13T18:57:55.743Z,97483.28
2022-12-13T19:00:00.552Z,97479.00
2022-12-13T19:02:05.369Z,97481.50
2022-12-13T19:04:12.826Z,97472.13
2022-12-13T19:06:19.823Z,97470.38
2022-12-13T19:08:26.449Z,97467.81
2022-12-13T19:10:31.361Z,97465.28
2022-12-13T19:12:36.395Z,97464.44
2022-12-13T19:14:41.168Z,97466.94
2022-12-13T19:16:45.978Z,97467.78
2022-12-13T19:18:51.224Z,97466.06
2022-12-13T19:20:58.858Z,97470.31
2022-12-13T19:23:03.590Z,97458.44
2022-12-13T19:25:09.756Z,97466.06
2022-12-13T19:27:14.507Z,97468.59
2022-12-13T19:29:19.544Z,97461.81
2022-12-13T19:31:30.386Z,97457.53
2022-12-13T19:33:37.176Z,97460.06
2022-12-13T19:35:43.570Z,97458.34
2022-12-13T19:37:51.011Z,97453.28
2022-12-13T19:39:55.775Z,97447.41
2022-12-13T19:42:00.639Z,97452.59
2022-12-13T19:44:06.476Z,97448.38
2022-12-13T19:46:11.851Z,97438.19
2022-12-13T19:48:17.198Z,97433.94
2022-12-13T19:50:22.039Z,97425.47
2022-12-13T19:52:27.306Z,97432.25
2022-12-13T19:54:34.754Z,97427.97
2022-12-13T19:56:39.581Z,97430.47
2022-12-13T19:58:44.512Z,97417.72
2022-12-13T20:00:49.162Z,97417.72
2022-12-13T20:02:55.095Z,97416.06
2022-12-13T20:04:59.959Z,97410.13
2022-12-13T20:07:04.870Z,97398.25
2022-12-13T20:09:09.631Z,97394.91
2022-12-13T20:11:19.504Z,97392.38
2022-12-13T20:13:24.889Z,97389.00
2022-12-13T20:15:30.775Z,97398.38
2022-12-13T20:17:35.781Z,97402.66
2022-12-13T20:19:40.446Z,97400.16
2022-12-13T20:21:45.193Z,97401.91
2022-12-13T20:23:50.066Z,97404.50
2022-12-13T20:26:02.645Z,97409.59
2022-12-13T20:28:15.944Z,97401.13
2022-12-13T20:30:22.173Z,97395.22
2022-12-13T20:32:27.110Z,97390.09
2022-12-13T20:34:31.881Z,97385.91
2022-12-13T20:36:36.663Z,97392.69
2022-12-13T20:38:44.047Z,97388.41
2022-12-13T20:40:49.579Z,97371.41
2022-12-13T20:42:54.360Z,97373.13
2022-12-13T20:45:02.574Z,97370.56
2022-12-13T20:47:07.530Z,97361.22
2022-12-13T20:49:12.661Z,97359.50
2022-12-13T20:51:18.397Z,97362.06
2022-12-13T20:53:23.343Z,97370.56
2022-12-13T20:55:27.950Z,97381.56
2022-12-13T20:57:33.265Z,97373.09
2022-12-13T20:59:38.049Z,97373.06
2022-12-13T21:01:49.092Z,97381.59
2022-12-13T21:03:56.089Z,97379.03
2022-12-13T21:06:00.863Z,97368.84
2022-12-13T21:08:18.144Z,97357.81
2022-12-13T21:10:22.962Z,97350.16
2022-12-13T21:12:27.774Z,97338.28
2022-12-13T21:14:33.580Z,97334.84
2022-12-13T21:16:41.200Z,97328.06
2022-12-13T21:18:48.726Z,97344.19
2022-12-13T21:20:57.916Z,97345.91
2022-12-13T21:23:02.799Z,97338.28
2022-12-13T21:25:08.953Z,97348.47
2022-12-13T21:27:13.731Z,97339.13
2022-12-13T21:29:18.987Z,97337.41
2022-12-13T21:31:25.940Z,97330.59
2022-12-13T21:33:30.780Z,97324.66
2022-12-13T21:35:38.252Z,97328.06
2022-12-13T21:37:43.019Z,97328.09
2022-12-13T21:39:53.241Z,97328.97
2022-12-13T21:41:58.781Z,97330.66
2022-12-13T21:44:03.624Z,97338.31
2022-12-13T21:46:10.493Z,97345.91
2022-12-13T21:48:15.523Z,97340.81
2022-12-13T21:50:21.289Z,97334.03
2022-12-13T21:52:28.702Z,97340.84
2022-12-13T21:54:33.677Z,97338.31
2022-12-13T21:56:50.958Z,97332.41
2022-12-13T21:59:08.539Z,97333.22
2022-12-13T22:01:14.265Z,97334.06
2022-12-13T22:03:19.109Z,97344.25
2022-12-13T22:05:23.969Z,97340.00
2022-12-13T22:07:33.168Z,97341.69
2022-12-13T22:09:38.781Z,97324.72
2022-12-13T22:11:43.561Z,97319.63
2022-12-13T22:13:48.592Z,97318.75
2022-12-13T22:15:53.888Z,97317.06
2022-12-13T22:17:58.519Z,97317.03
2022-12-13T22:20:04.117Z,97322.13
2022-12-13T22:22:09.446Z,97322.13
2022-12-13T22:24:16.940Z,97323.84
2022-12-13T22:26:21.786Z,97325.53
2022-12-13T22:28:26.864Z,97317.06
2022-12-13T22:30:31.920Z,97312.78
2022-12-13T22:32:36.820Z,97308.53
2022-12-13T22:34:41.676Z,97311.06
2022-12-13T22:36:46.749Z,97312.75
2022-12-13T22:38:52.829Z,97307.66
2022-12-13T22:41:02.324Z,97310.22
2022-12-13T22:43:07.190Z,97296.63
2022-12-13T22:45:13.202Z,97292.44
2022-12-13T22:47:18.152Z,97289.91
2022-12-13T22:49:23.072Z,97280.59
2022-12-13T22:51:27.769Z,97277.25
2022-12-13T22:53:32.599Z,97273.00
2022-12-13T22:55:37.415Z,97271.28
2022-12-13T22:57:48.605Z,97283.13
2022-12-13T22:59:53.566Z,97273.75
2022-12-13T23:02:02.556Z,97273.69
2022-12-13T23:04:11.058Z,97272.81
2022-12-13T23:06:17.887Z,97268.53
2022-12-13T23:08:22.759Z,97262.59
2022-12-13T23:10:39.942Z,97262.56
2022-12-13T23:12:59.731Z,97264.28
2022-12-13T23:15:04.652Z,97255.78
2022-12-13T23:17:10.034Z,97260.88
2022-12-13T23:19:40.823Z,97248.09
2022-12-13T23:21:42.398Z,97242.97
2022-12-13T23:23:53.482Z,97236.16
2022-12-13T23:25:58.214Z,97228.50
2022-12-13T23:28:05.575Z,97228.50
2022-12-13T23:30:12.350Z,97222.56
2022-12-13T23:32:17.539Z,97219.22
2022-12-13T23:34:22.308Z,97227.72
2022-12-13T23:36:28.715Z,97224.28
2022-12-13T23:38:34.568Z,97220.03
2022-12-13T23:40:39.332Z,97232.78
2022-12-13T23:42:44.128Z,97231.09
2022-12-13T23:44:51.482Z,97228.56
2022-12-13T23:46:56.281Z,97226.81
2022-12-13T23:49:01.442Z,97222.53
2022-12-13T23:51:08.040Z,97216.59
2022-12-13T23:53:12.780Z,97217.38
2022-12-13T23:55:17.800Z,97218.19
2022-12-13T23:57:22.596Z,97203.78
2022-12-13T23:59:27.598Z,97197.91
